SMRA10 UAOL 152100
AAXX 15211
11406 27/81 /1902 10167 20118 39636 40203 51006 70011 333 60005 555 373// 50195 60194 70198 80187 90173=
11423 27/81 /3602 10169 20092 39350 42840 51006 70011 333 60005 555 361// 50185 60185 70180 80160=
11457 25881 /0000 10112 20095 38951 48558 51007 333 60005 83/57 555 389// 50175 60177 70172 80163=
11464 42984 20106 10158 20099 39252 42845 51004 80001 333 82072 555 368//=
11487 25781 /3402 10181 20113 39599 40200 51008 333 60005 82/56 555 364// 50207 60206 70201 80195 90177=
11518 22884 30303 10197 20102 39774 40195 52010 83031 333 60005 83357 555 355//=
11520 27781 /9901 10216 20102 39844 40195 51011 70010 333 60005 87/50 555 348// 50240 60242 70243 80226 90213=
11546 27981 /1701 10184 20127 39731 40197 51012 70010 333 6///5 87/59 555 370// 50211 60206 70219 80199 90186=
11567 22880 70301 10206 20103 39867 40198 52011 87010 333 60005 87457 555 352// 50209=
11603 25/81 /0901 10140 20078 39736 40208 51010 333 60005 555 366// 50206 60207 70204 80191 90181=
11624 22970 02101 10181 20120 39919 40200 52014 333 60005 555 367// 50220=
11636 25/81 /3302 10168 20097 39543 42840 51013 333 60005 555 363// 50209 60218 70215 80198 90190=
11652 22970 02101 10178 20094 39932 40197 52015 333 60005 555 358// 50220=
11659 27881 /1601 10162 20093 39583 40203 52013 70011 333 60005 81/56 555 364// 50204 60205 70186 80181 90177=
11669 22980 00702 10162 20092 39348 42835 52010 333 60005 555 363// 50183 60178 70180 80170 90156=
11679 27/81 /0401 10177 20110 39729 40198 53015 70011 333 60005 555 365// 50203 60206 70208 80192 90179=
11692 22975 03202 10187 20087 39648 40200 52014 333 60005 555 352// 50210=
11723 22984 20503 10207 20102 39906 40191 52018 81041 333 60005 81359 555 351// 50242 60241 70235 80216 90198=
11766 27/81 /0204 10159 20099 39340 42836 51011 70011 333 60005 555 368// 50189 60193 70191 80181=
11774 25/81 /1601 10160 20123 39931 40196 51017 333 60005 555 379//=
11782 22980 13601 10175 20137 39896 40200 52015 81030 333 60005 81359 555 378// 50222 60228=
11787 27748 /0207 10113 20110 38731 48554 52012 71011 333 60005 81/50 91111 555 398// 50163 60166 70163 80156=
11801 42975 00000 10163 20106 39950 40198 52017 555 10198 369//=
11813 46/// /3602 10218 20103 39850 40182 52015=
11816 42982 10202 10192 20122 30027 40184 52016 80001 333 81070=
11819 46/// /3603 10207 20127 39981 40188 52018=
11826 46/// /3503 10203 20140 39994 40185 52018=
11841 42982 49901 10181 20146 39833 40195 51017 84030 333 84359=
11855 45/84 /9901 10214 20136 30021 40179 52016=
11856 46/// /2201 10198 20148 39875 40179 52017=
11858 46/// /9902 10209 20136 30034 40179 52016=
11867 45/84 /9901 10208 20138 39883 40185 52017=
11880 46/// /0000 10185 20150 30017 40182 52017=
11903 42882 69901 10208 20133 39816 40178 53016 86500 333 86657=
11916 46/// /3209 10074 20074 38045 48529 52012=
11918 46/// /0703 10136 20125 39404 42834 52014=
11927 46/// /0000 10167 20156 39928 40181 52014=
11930 46/// /3106 10038 20036 37445 47148 52010=
11933 46/// /0000 10121 20115 38724 48545 52008=
11934 42570 72302 10140 20132 39396 42829 51013 8257/ 333 82626 87360=
11938 46/// /0505 10148 20125 39162 42820 52010=
11952 46/// /0102 10160 20140 39386 42828 52012=
11955 46/// /0503 10188 20171 39824 40179 52008=
11958 46/01 /3609 10128 20126 38796 48529 51007 73066=
11968 42880 73506 10212 20158 39904 40171 51008 87500 333 87657=
11976 46/// /9901 10188 20176 39930 40183 52009=
11978 46/// ///// 10210 20158 30039 40163 52006=
11993 46/// /0000 10200 20174 39957 40163 52010=
12105 42982 02201 10166 20151 30148 40189 51010 333 91202=
12115 42980 02003 10162 20137 30170 40184 51009 333 91204=
12120 42977 02103 10145 20135 30180 40184 51012 333 91205=
12125 45/70 /0000 10144 20144 30137 40185 51013 333 91202 91301=
12135 42580 12804 10184 20155 30177 40181 51013 81200 333 91111 91206=
12160 41565 32701 10161 20146 39966 40186 51014 70181 83200 333 91202=
12185 45/81 /2802 10159 20149 30048 40180 52016 333 91203 91302=
12195 42982 23003 10162 20151 39952 40172 52016 80002 333 91203=
12200 42981 31902 10171 20153 30181 40188 50006 83030 333 91202=
12205 42660 51401 10151 20145 30182 40191 51009 85500 333 91202=
12210 47/// /1401 10170 20149 30127 40187 52009 700//=
12215 47/// /1801 10145 20138 30024 40191 52011 7////=
12230 45/84 /0000 10164 20129 30104 40192 51013 333 91202 91301=
12235 42965 03001 10143 20129 39989 40196 52010 333 91202=
12250 42976 00000 10147 20137 30106 40193 51014 333 91201 96122=
12270 42962 22802 10159 20153 30011 40188 52015 80001 333 91202=
12272 42684 73104 10173 20158 30023 40186 52015 875// 333 91204=
12280 42781 62701 10174 20156 30028 40181 52016 86500 333 91203=
12285 47/// /2601 10168 20158 30071 40184 52015 700//=
12295 42962 12601 10153 20143 39998 40180 52016 80001 333 91202=
12300 42982 83201 10200 20132 30107 40194 51011 8805/ 333 91201=
12310 42780 70000 10196 20133 30132 40196 51010 875// 333 91202=
12330 42986 73001 10195 20125 30088 40193 51011 8703/ 333 91203=
12345 45/80 /2001 10170 20145 30053 40193 51013 333 91202 91301=
12360 45/84 /3102 10175 20151 30060 40189 51015 333 91203 91302=
12375 42980 62803 10189 20159 30060 40185 52015 86030 333 91204=
12385 42968 62901 10166 20148 30000 40185 51018 84032 333 91203 96122=
12399 42668 62701 10169 20156 30014 40177 52014 84530 333 91202=
12400 42884 33001 10198 20110 39969 40195 51008 83500 333 91202=
12415 45/84 /2001 10160 20120 30050 40199 51012 333 91202 91301=
12418 45880 /2901 10166 20123 30085 40196 51011 333 91202 91301=
12424 42984 02901 10172 20121 30053 40197 51012 333 91201=
12435 42784 10101 10185 20146 30029 40194 51013 81500 333 91202=
12455 41977 42101 10170 20143 39960 40196 52011 70181 84030 333 91202=
12465 42768 32001 10157 20144 39982 40198 51016 82530 333 91202 96122=
12469 42981 60000 10172 20155 39971 40195 52014 8603/ 333 91201 96122=
12488 42784 72802 10182 20156 30037 40187 51015 875// 333 91202 96122=
12495 42983 23102 10180 20154 39903 40185 51011 82030 333 91203=
12497 42970 02603 10165 20149 39967 40180 51012 333 91203 96122=
12500 42984 00000 10142 20114 39803 40212 52014 333 91202=
12510 42984 03608 10090 20078 38432 48550 52008=
12520 42984 02901 10160 20105 39786 40208 51015 333 91202=
12530 42960 11301 10168 20149 30005 40200 51014 81030 333 91201 96122=
12540 42973 02602 10158 20135 39957 40203 51016 333 91202 96122=
12550 45/63 /2101 10180 20154 39852 40200 51013 333 91201 91300=
12560 42960 31801 10141 20130 39872 40206 51014 83030 333 91201=
12566 42982 62902 10185 20148 39914 40198 51015 86030 333 91203=
12570 42975 70000 10177 20155 39887 40195 51013 8707/ 333 91203 96122=
12575 45/61 /0000 10163 20145 39948 40196 51014 333 91201 91301=
12580 41670 73301 10185 20180 39932 40188 51012 72522 8237/ 333 91204=
12585 45/83 /3002 10176 20158 39931 40189 51014 333 91203 91302=
12595 45/60 /2802 10169 20159 39922 40185 51012 333 91204 91303=
12600 42980 11701 10145 20124 39735 40208 51013 81030 333 91202 96122=
12625 41660 61901 10147 20136 39231 42837 51012 70182 86500 333 91201=
12650 41/00 90307 10071 20071 38057 48548 50008 74544 333 91208=
12660 47/57 /0000 10174 20159 39851 40199 51017 710// 333 91107 91203 91301=
12670 41757 53501 10177 20172 39802 40191 51008 71022 83530 333 91202=
12690 41631 63301 10176 20174 39697 40190 51007 71082 86500 333 91201=
12695 47/// /9902 10190 20185 39860 40186 52006 700//=
12756 46/// /0000 10162 20147 30000 40183 52014 555 10091=
12766 46/// /0000 10163 20147 39820 40185 51012 555 10090=
12772 46/// /2601 10185 20161 39981 40173 51011=
12786 46/// /3202 10207 20167 30037 40160 50004 555 10078=
12805 46/// /2802 10193 20121 30047 40187 51015 555 10063=
12812 46/// /3202 10191 20126 39948 40186 51013 555 10066=
12815 46/// /3303 10186 20104 30038 40182 51017 555 10059=
12822 46/// /3100 10185 20156 48///=
12830 46/// /3402 10206 20115 39850 40178 51012 555 10056=
12836 46/// /0000 10189 20150 30028 40175 52016 555 10078=
12843 41882 40401 10207 20167 30012 40175 51017 70111 83540 333 83656=
12846 46/// /0402 10217 20160 30048 40172 51017 555 10070=
12847 46/// /1001 10216 20145 30046 40176 51019 555 10064=
12851 46/// /0206 10140 20119 39039 42821 51009 555 10087 55124=
12866 46/// /3602 10204 20154 30060 40166 51009 555 10073=
12870 46/// /1101 10178 20158 39908 40175 50009 555 10088=
12882 44970 70202 10207 20173 30033 40160 51008 70222 8708/=
12892 46/// /3404 10198 20168 39993 40160 51004 555 10083=
12910 46/// /3002 10170 20141 39825 40194 51012 555 10083=
12915 46/// /3102 10192 20125 39903 40185 51012 555 10065=
12922 46/// /3002 10182 20145 30037 40180 52013 555 10079=
12925 46/// /1700 10163 20158 30017 40184 51013=
12935 41682 33004 10242 20172 30045 40171 51011 70311 83502 333 83646 555 10065=
12942 46/// /3103 10215 20137 39937 40171 52006=
12950 41975 70201 10208 20156 30055 40170 52012 70222 80008 555 10072=
12960 46/// /0000 10182 20165 30033 40166 52008 555 10090=
12982 41981 33503 10216 20186 30064 40161 51011 70111 81041=
12992 46/// /3302 10203 20196 30051 40155 50001 555 10096=
13067 42960 00101 10210 20187 30042 40166 52009=
13160 42960 02902 10218 20139 30057 40160 52007=
13168 42670 12902 10198 20173 30057 40160 51007 81500=
13173 42970 03402 10213 20184 30054 40149 51007=
13174 42970 03402 10211 20179 30061 40157 52012=
13180 42970 03401 10230 20174 30046 40151 51004=
13183 42970 20000 10202 20163 30051 40151 50004 81031 333 81360=
13262 42970 00000 10217 20187 30024 40166 52010=
13266 42970 03301 10202 20162 30065 40162 50007=
13269 42670 62301 10219 20196 39953 40157 50007 86500=
13272 32965 43102 10215 20168 30041 40155 51004 80002=
13274 42970 02801 10225 20194 39998 40150 50004=
13278 42670 51701 10220 20190 39939 40151 52009 83530=
13279 42970 20000 10204 20180 30008 40148 50004 80005=
13285 42670 30000 10209 20190 30045 40142 51006 83500=
13289 42980 03104 10168 20154 39004 48528 51005=
13295 42970 00000 10197 20159 30088 40140 52010=
13367 42570 60501 10160 20149 39021 48534 51008 86500=
13369 42680 63202 10172 20155 39010 48513 50008 86500=
13376 42980 62401 10221 20182 39903 40152 51008 86030=
13378 42370 60605 10129 20129 38315 48547 51003 86500=
13383 42970 01802 10204 20190 39959 40153 52013=
13384 42970 00000 10196 20187 30007 40152 50005=
13388 42980 00000 10227 20168 39912 40146 51010=
13389 41670 61001 10210 20181 39878 40145 51009 70192 86500=
13397 42670 60000 10158 20130 39636 40157 52004 86500=
13457 41660 81701 10237 20151 30121 40127 50018 72196 8452/ 333 84640 88458=
13462 41560 83303 10212 20195 30105 40145 52014 76196 8682/ 333 82830 84640 88458=
13489 42665 50701 10205 20143 39646 40139 51007 85500=
13586 32980 53302 10217 20154 39862 40138 52012 80006=
13600 42660 80906 10220 20216 30095 40145 52030 885// 333 88640=
13601 42660 63204 10234 20197 39997 40112 52018 83530 333 83640 83360=
13610 41758 80406 10224 20158 39717 40120 54000 76162 885// 333 88650=
13611 42660 63204 10242 20206 30028 40115 54000 84530 333 84640=
13615 45967 /0000 10209 20190 30078 40123 58002 8//// 333 87/65=
13619 41560 70000 10182 20158 39404 42798 54002 75062 87500 333 87630=
13622 42662 80408 10226 20161 30098 40105 54003 885// 333 88636=
13623 42960 73210 10250 20184 30122 40128 52022 87030 333 87360=
13624 41760 71406 10208 20191 30072 40109 52008 70296 83520 333 83656 84460=
13625 41760 40000 10214 20168 39902 40124 52016 70192 84500 333 84650=
13629 42660 23204 10180 20180 39112 42761 52010 82500 333 82633=
13632 41759 60000 10230 20168 39996 40153 52016 71062 86500 333 86650=
13633 42964 20000 10270 20167 30093 40129 52008 82030 333 82360=
14240 42970 43301 10211 20142 30028 40177 51010 83031=
14241 42/84 20000 10195 20142 30053 40178 51011 81032=
14284 42970 03103 10182 20158 30061 40166 51009=
14307 42984 00604 10227 20143 30083 40158 51011=
14317 42580 40903 10257 20124 30061 40163 52010 81102=
14431 42980 40404 10250 20136 30045 40141 51010 82032=
14444 42982 00407 10269 20143 30104 40129 51012 333 91012 91503=
14445 42970 50609 10262 20143 39975 40121 51010 82032 333 82399 83099 92312=
14474 42984 00703 10253 20154 39943 40123 50012=
14542 42670 52501 10213 20176 39993 40174 52011 83570 333 83640 82458 95900=
14549 46/// /1801 1//// 2//// 3//// 4//// 5////=
14652 41/00 93608 10090 20090 37977 48523 57001 74564 333 89///=
14654 42665 80000 10192 20165 39465 40177 52012 888// 333 84840 85646=
15000 23/// /2703 10193 20172 39876 40181 52015 333 55300 60007 91004 91105=
15004 23/// /1100 10175 20159 39849 40175 53004 333 6///7 91002 91106=
15007 23/// /0201 10170 20167 39723 40180 52005 333 69927 91002 91103=
15010 22597 82501 10222 20188 30011 40156 50008 86307 333 60007 91001 91103=
15014 22998 60601 10199 20177 39941 40158 52008 80008 333 60007 91002 91102=
15015 22597 40000 10155 20155 39589 42809 52004 82501 333 60007=
15020 22997 02901 10187 20163 39981 40172 51013 333 60007 91001 91103=
15023 22998 23101 10186 20179 39748 40160 51010 82060 333 60007 91002 91104=
15025 23/// /2906 10201 20168 30029 40160 51010 333 60007 91008 91108=
15033 22497 52105 10122 20084 38254 48540 55001 70282 85300 333 55300 0//// 20000 3//// 69917 91006 91106 95000=
15042 26/// /2202 10202 20197 30014 40162 51010 333 55300 0//// 20000 3//// 60047=
15044 26/// /1001 10208 20178 39970 40158 50007 333 55300 0//// 20000 3//// 69927 91103=
15047 26/// /1401 10160 20157 39744 40173 52008 333 55300 0//// 20000 3//// 60007=
15056 22597 23105 10204 20154 39827 40164 52013 82500 333 55300 0//// 20000 3//// 60007 91007 91109=
15063 22997 71602 10190 20181 39819 40165 51012 87070 333 60007 91002 91103=
15069 23/// /0403 10139 20130 39135 42818 52002 333 60007 91004 91104=
15073 23/// /3202 10197 20158 39726 40177 51012 333 60007 91003 91106=
15080 21597 82603 10207 20162 30007 40168 53018 71781 8397/ 333 69927 91005 91107=
15083 23/// /3201 10174 20154 39886 40160 52011 333 55300 0//// 20000 3//// 60007 91001 91102=
15085 22997 00302 10206 20139 39729 40153 52007 333 60007 91003 91104=
15088 22998 01107 10103 20096 38025 48542 52003 333 55300 0//// 20000 3//// 60007 91008 91109=
15090 22997 02802 10221 20178 30075 40163 51018 333 55300 10199 20000 3//// 60007 91004 91104=
15094 26/// /0101 10190 20171 39712 40174 51011 333 55300 0//// 20000 3//// 60007=
15095 23/// /1402 10176 20164 39776 40168 50008 333 55300 0//// 20000 3//// 60007 91004 91104=
15099 23/// /3001 10184 20164 39525 42812 52008 333 553// 60007 910// 91105=
15107 23/// /3301 10168 20147 39394 42819 51015 333 60007 91002 91103=
15108 21298 71207 10105 20088 38146 48542 50004 71798 84961 333 55300 0//// 20001 3//// 60077 91008 91108=
15109 22597 12802 10196 20167 39754 40173 51019 81400 333 60007 91003 91108=
15111 23/// ///04 10195 20161 39906 40161 51017 333 60007 91006 91106=
15113 26/// /2603 10211 20177 30002 40159 51017 333 55300 0//// 20000 3//// 60007=
15117 26/// /0103 10212 20150 39961 40152 50008 333 55300 0//// 20000 3//// 60007=
15118 23/// /1401 10125 20123 38939 48531 50004 333 60007 91001 91101=
15119 22999 30000 10120 20109 38201 48541 50002 83040 333 60007=
15120 22997 22502 10180 20163 39688 40166 51008 80008 333 55300 10183 20000 3//// 60007 91003 91103=
15123 23/// ///// 10190 20151 39704 40169 52007 333 55300 0//// 20000 3//// 60007 91001 91104=
15124 26/// /3600 10186 20154 39643 40165 51008 333 60007 91000 91101=
15127 21597 63000 10155 20146 39320 42815 51013 70292 86300 333 55300 0//// 20000 3//// 60007 91002 91103=
15136 21597 60303 10208 20208 30040 40155 52015 70182 81970 333 55300 60027 91004 91106=
15138 22998 01001 10205 20154 39487 42806 50003 333 55300 0//// 20000 3//// 60007 91001 91102=
15143 26/// /2402 10197 20164 39672 40167 51009 333 55300 0//// 20000 3//// 60007 91103=
15145 22997 00000 10198 20160 39800 40162 52010 333 60007 91000 91101=
15148 22997 00604 10143 20126 38747 48526 51009 333 55300 0//// 20000 3//// 60007 91006 91106=
15150 22997 03501 10212 20160 39962 40167 51023 333 60007 91005 91106=
15154 22997 03002 10190 20135 30018 40157 52017 333 60007 91004 91104=
15160 23/// /1602 10188 20183 39829 40155 51008 333 60007 91005 91105=
15162 23/// /0000 10158 20149 39471 42813 51009 333 60007 91000 91103=
15163 25/61 /3301 10142 20142 38687 48545 50005 7000/ 333 55300 0//// 20000 3//// 60007=
15165 21698 22303 10198 20139 39560 42808 51009 71311 81940 333 60007=
15168 26/// /2700 10184 20160 39559 42806 52013 333 60007 91001 91102=
15170 22698 23002 10135 20127 39411 42808 51016 81301 333 60007 91003 91103=
15179 26/// /0303 10198 20168 39614 40160 51006 333 55300 0//// 20000 3//// 60007 91108=
15182 23/// /1202 10194 20171 39945 40154 51007 333 60007 91003 91103=
15184 21497 30401 10167 20114 38850 48540 51006 70191 82360 333 60007 91002 91103=
15189 26/// /2602 10198 20170 39786 40156 51013 333 60007 91004 91104=
15194 23/// /3301 10209 20148 39880 40163 52021 333 60007 91003 91107=
15197 23/// /0102 10214 20114 39952 40154 51011 333 55300 0//// 20000 3//// 60007 91003 91103=
15199 23/// /3603 10205 20191 30037 40138 51013 333 55300 60007 91003 91105=
15200 22998 00101 10215 20178 30015 40153 51011 333 60007 91002 91103=
15204 26/// /3301 10189 20182 39978 40163 51007 333 55300 0//// 20000 3//// 60007 91102=
15206 26/// /1102 10168 20164 39847 40170 51007 333 55300 0//// 20000 3//// 69927 91103=
15208 26/// /0801 10187 20169 39879 40169 52014 333 55300 0//// 20000 3//// 60007=
15209 26/// /1803 10183 20161 39773 40170 51014 333 55300 0//// 20000 3//// 60007 91103=
15214 97180 23/// /2002 10213 20187 30083 40103 53001 333 60007=
15215 23/// /1401 10172 20139 39579 42808 51015 333 55300 0//// 20001 3//// 60007 91001 91103=
15217 23/// /0102 10156 20114 39512 42807 52014 333 60007 91002 91104=
15219 23/// /3004 10183 20144 30026 40147 52018 333 55300 60007 91007 91107=
15230 22997 23001 10181 20162 39884 40168 51009 82040 333 55300 10146 20000 3//// 60007 91001 91102=
15231 22597 62301 10176 20167 39854 40169 52012 86300 333 60007 91003 91104=
15235 23/// /2901 10180 20180 39673 40173 52017 333 55300 60007 91002 91105=
15238 23/// /0101 10164 20141 39561 42805 52015 333 60007 91002 91102=
15245 26/// /3403 10209 20181 30060 40155 51011 333 55300 0//// 20000 3//// 60007 91105=
15247 22597 33502 10235 20173 30043 40144 51008 83200 333 55300 10145 20000 3//// 60007 91004 91104=
15254 22997 10501 10127 20123 38584 48537 51007 81060 333 60007 91001 91102=
15260 22998 02701 10189 20157 39656 40171 51018 333 60007 91002 91103=
15261 23/// /2800 10135 20118 39379 42825 52013 333 55300 0//// 20000 3//// 60007 91001 91101=
15262 22999 02902 10137 20075 38263 48538 52005 333 55300 0//// 20000 3//// 60007 91002 91103=
15264 22997 03201 10219 20122 30081 40150 52004 333 60007 91002 91103=
15265 23/// /3502 10183 20143 30076 40149 52007 333 55300 0//// 20000 3//// 60007 91002 91102=
15270 23/// /1402 10204 20187 30010 40156 52010 333 55300 60007 91002 91103=
15277 26/// /2302 10184 20153 39570 42810 52013 333 55300 60007 91003 91104=
15279 21497 81802 10111 20100 37991 48526 50002 70282 883// 333 60017 91003 91104=
15280 21/90 90205 10081 20081 37575 47155 52003 74794 333 55300 0//// 20005 3//// 60007 91008 91109=
15284 22398 33304 10154 20010 38403 48536 52004 82360 333 60007 91004 91104=
15285 23/// /2403 10210 20052 39204 42808 52004 333 55300 0//// 20000 3//// 60007 91004 91105=
15289 23/// /3602 10233 20176 30055 40153 51008 333 55300 0//// 20000 3//// 60007 91004 91104=
15292 22998 01701 10192 20175 39876 40160 51007 333 60007 91002 91103=
15296 25/67 /0600 10147 20147 39479 42816 52008 7000/ 333 55300 0//// 20000 3//// 60007=
15297 26/// /3202 10106 20088 38698 48/// 51007 333 55300 0//// 20000 3//// 60007 91103=
15300 22997 21000 10182 20139 39548 42807 51014 80001 333 60007 91002 91105=
15301 22998 02302 10159 20081 38667 48551 51004 333 55300 0//// 20000 3//// 60007 91002 91103=
15302 23/// /1300 10133 20110 38960 48528 52008 333 55300 0//// 20000 3//// 60007 91002 91102=
15307 25/70 /3305 10212 20128 39963 40142 52004 7000/ 333 55300 0//// 20000 3//// 60007=
15310 22998 00000 10229 20166 30063 40145 51006 333 55300 10199 20000 3//// 60007 91000 91100=
15314 21598 43401 10195 20182 39829 40156 51005 70291 82460 333 60007=
15315 22399 40501 10146 20123 38612 48544 51004 84500 333 60007 91003 91103=
15316 26/// /1001 10136 20096 38576 48533 51004 333 55300 0//// 20000 3//// 60007=
15317 22998 21202 10098 20078 37878 48544 51004 80009 333 55300 0//// 20000 3//// 60007 91003 91104=
15319 26/// /3001 10151 20125 39516 42/// 52013 333 55300 0//// 20000 3//// 60007 91101=
15320 23/// /3601 10135 20093 38488 48537 52004 333 60007 91001 91101=
15324 25/70 /1301 10161 20121 39388 42808 51005 7000/ 333 55300 0//// 20000 3//// 60007=
15325 22999 03401 10137 20083 38522 48533 52003 333 60007 91002 91102=
15328 26/// /3602 10176 20115 39822 40163 51010 333 55300 0//// 20000 3//// 60007=
15333 23/// /3201 10195 20166 30123 40141 51006 333 60007 91002 91102=
15335 22997 01600 10189 20172 30135 40142 51004 333 60007 91001 91102=
15336 25/60 /3001 10197 20197 30133 40135 50002 7000/ 333 55300 0//// 20000 3//// 60007=
15337 23/// ///// 10254 20123 39944 40138 50001 333 60007=
15338 22997 00502 10199 20163 39795 40156 51006 333 60007 91003 91103=
15340 22997 02001 10200 20160 39913 40151 52010 333 60007 91002 91103=
15341 25/68 /2301 10177 20165 39850 40145 51011 7000/ 333 55300 0//// 20000 3//// 60007=
15344 22997 03403 10189 20122 39550 42806 52006 333 55300 0//// 20000 3//// 60007 91005 91106=
15345 26/// /0202 10180 20095 39529 42803 52003 333 55300 0//// 20000 3//// 60007=
15346 22997 03402 10193 20134 39877 40155 51010 333 60007 91004 91106=
15347 26/// /0201 10158 20124 39639 40165 51006 333 55300 0//// 20000 3//// 60007=
15349 23/// /3501 10161 20117 39627 40167 52006 333 55300 0//// 20000 3//// 60007 91003 91104=
15350 22997 00104 10223 20145 30034 40149 52006 333 60007 91005 91106=
15360 22998 03504 10251 20199 30118 40131 50001 333 60007 91005 91105 92418=
15364 23/// /0801 10183 20182 39867 40169 51009 333 60007 91001 91102=
15366 23/// /0401 10200 20172 39929 40153 51009 333 60007 91003 91103=
15369 23/// /0301 10152 20136 39846 40162 52009 333 55300 0//// 20000 3//// 60007 91002 91104=
15373 22997 03402 10176 20142 39779 40150 52009 333 60007 91004 91106=
15375 22997 03303 10162 20136 39805 40155 52004 333 60007 91004 91105=
15377 22997 00602 10198 20127 39939 40147 52007 333 60007 91005 91105=
15387 26/// /3202 10202 20191 30129 40132 50001 333 55300 0//// 20000 3//// 60007=
15388 23/// ///// 10220 20173 30052 40150 51008 333 60007=
15395 22998 00103 10213 20118 39826 40152 52005 333 60007 91004 91105=
15402 23/// /1501 10201 20132 30072 40144 52008 333 55300 0//// 20000 3//// 60007 91002 91103=
15405 22997 00602 10209 20122 30087 40147 52007 333 55300 0//// 20000 3//// 60007 91002 91102=
15406 23/// /3302 10214 20139 30094 40140 51005 333 60007 91002 91102=
15408 23/// /0702 10218 20145 39886 40142 52003 333 55300 60007 91003 91103=
15409 23/// /3202 10212 20156 30092 40139 50001 333 55300 0//// 2//// 3//// 6///7 91003 91104=
15410 22997 00501 10220 20165 30054 40145 51011 333 60007 91002 91102=
15412 26/// /0902 10221 20085 39787 40150 51007 333 55300 0//// 20000 3//// 60007 91103=
15416 23/// /3302 10178 20132 39903 40150 51007 333 60007 91003 91103=
15419 23/// /3401 10177 20154 39965 40154 52006 333 60007 91002 91103=
15420 22997 03501 10160 20152 30034 40143 52006 333 55300 0//// 20000 3//// 60007 91002 91102=
15421 23/// /3402 10211 20131 30044 40151 51006 333 55300 0//// 20000 3//// 60007 91002 91103=
15422 22997 00201 10211 20119 30045 40142 52006 333 55300 0//// 20000 3//// 60007 91002 91103=
15425 22997 00301 10244 20143 30079 40140 51004 333 60007 91003 91103=
15428 22997 03602 10237 20207 30130 40134 50001 333 55300 10213 20000 3//// 60007 91003 91103 92417=
15434 22997 00301 10185 20136 39944 40148 52007 333 60007 91002 91104=
15444 23/// /3301 10217 20166 30070 40138 52007 333 55300 60007 91002 91102=
15445 23/// /0000 10221 20178 30044 40148 52006 333 55300 60007 91001 91103=
15450 22997 00304 10209 20098 39917 40142 51007 333 55300 10212 20000 3//// 60007 91005 91105=
15455 26/// /3602 10205 20128 30016 40142 52005 333 55300 0//// 20000 3//// 60007=
15460 22997 00201 10204 20153 30114 40138 52007 333 60007 91001 91101=
15462 22997 00600 10220 20188 30055 40139 51004 333 60007 91001 91101=
15465 26/// /0502 10224 20093 30068 40137 51010 333 55300 0//// 20000 3//// 60007=
15469 23/// /0102 10221 20127 30016 40141 51008 333 60007 91003 91103=
15470 22997 00102 10229 20127 30017 40137 51007 333 60007 91003 91104=
15475 22997 03301 10208 20182 30118 40137 52007 333 55300 0//// 20000 3//// 60007 91003 91103=
15479 23/// ///// 10210 20171 39955 40140 51004 333 60007 91001 91101=
15480 22997 00102 10250 20210 30116 40133 50001 333 60007 91002 91103 92417=
15482 22997 03202 10221 20146 30066 40139 51011 333 60007 91002 91102=
15489 22997 00103 10222 20126 30047 40136 52006 333 60007 91004 91105=
15490 22997 11201 10242 20125 30099 40136 51010 81040 333 55300 0//// 20000 3//// 60007 91002 91103=
15491 22997 00501 10226 20158 30107 40136 52009 333 60007 91002 91103=
15494 22997 01001 10188 20152 30094 40138 51010 333 60007 91002 91103=
15498 23/// /0601 10230 20134 30093 40134 52009 333 60007 91003 91103=
15499 23/// /2902 10228 20228 30121 40129 50004 333 55300 60007 91003 91104=
15502 42970 00000 10170 20146 30094 40132 51013 333 10236 20170 555 586//=
15525 42975 02002 10190 20146 39866 40120 52003 333 10246 20190 555 576//=
15549 42970 00000 10207 20131 39736 40132 52004 333 10253 20204 555 562//=
15552 42960 00501 10250 20134 30077 40123 52003 333 10259 20250 555 549// 92023 92427=
15600 41970 30504 10134 20105 38340 48533 52006 70111 80006 333 10139 20133 555 582//=
15614 42670 20000 10182 20126 39470 40145 52008 82100 333 10224 20179 555 570//=
15615 41982 21402 10042 21010 37188 47136 54000 70200 82061 333 10067 20042 555 569//=
15640 42972 00000 10226 20185 39831 40126 52004 333 10268 20226 555 578//=
15655 42970 23402 10242 20167 30088 40119 58002 80001 333 10266 20238 555 563// 92034 92438=
15712 42975 62302 10232 20176 39893 40129 53020 86030 333 10259 20230 555 571//=
15730 42970 22903 10214 20167 39750 40126 52008 80001 333 10249 20204 555 575//=
16133 46/// /3301 10219 20152 30157 40166 52010 333 55077 555 12015 20236 3//// 43301 51100 63203 1/133 21111 31111 411// 51111 61111 7////=
16271 46/// /2703 10228 20197 30096 40131 52006 333 55177 24023 555 20224 3//10 42703 52701 62708 1/133 21111 31111 411// 51111 61111 7////=
16318 46/// /0406 10186 20184 39619 40138 52006 333 55177 20919 555 20198 3//10 40406 51301 60110 1/135 21111 31111 411// 51111 61111 7////=
16741 42660 20000 10243 20108 30028 40115 51008 81101 333 91105=
17020 42970 40701 10204 20193 30053 40090 52009 84030 333 84359 91104=
17031 42970 01501 10200 20176 30101 40107 55002 333 91104=
17063 42960 00309 10229 20209 39989 40102 52003 333 91116=
17064 42960 01601 10243 20206 30077 40097 52004 333 91109=
17066 42665 22401 10232 20196 30016 40103 52006 82100 333 82844 91104=
17077 42970 02701 10215 20106 39552 40091 52013 333 91108=
17080 42965 02201 10199 20097 39250 40071 52015 333 91110=
17095 42970 01009 10187 20083 38126 48472 50002 333 91117=
17118 42960 00402 10195 20168 39825 40088 52006 333 91105=
17119 42970 01802 10232 20196 30098 40102 52007 333 91106 92417=
17127 42965 00205 10200 20064 39162 40077 52009 333 91112=
17131 42960 01505 10209 20039 39181 40074 52008=
17143 42960 01011 10259 20166 30079 40094 52010 333 91120=
17175 42965 01003 10280 20142 30074 40078 52009 333 91111 92417=
17185 42970 01504 10197 20103 39122 40068 52010 333 91120=
17189 42970 03406 10165 20044 38990 48485 52010 333 91108=
17197 42960 02402 10235 20011 39032 40022 52010=
17208 42970 00202 10206 20125 38200 48483 53007 333 91111=
17232 42970 00501 10246 20213 30056 40085 52007 333 91104 92418=
17238 42970 01302 10221 20021 39021 40046 52010 333 91109=
17241 42970 01501 10201 20010 39123 40062 52012=
17256 42960 02716 10266 20191 39461 40029 52006=
17257 42970 02304 10218 20126 39151 40067 52012 333 91117=
17262 42970 02805 10256 20163 39340 40039 51001 333 91114=
17271 42960 02514 10283 20106 39137 40003 53002 333 91121=
17291 42960 01303 10228 20186 30071 40084 52007 333 91110=
17296 42970 01401 10270 20192 30060 40063 52004 333 91102 92408=
17302 42970 03501 10269 20186 30004 40057 51004 333 91103 92428=
17310 42970 00601 10271 20200 30050 40057 53002 333 91103 92438=
17355 42670 30901 10270 20247 39961 40072 52009 83100 333 83835 91114=
17371 42970 02708 10265 20219 39976 40077 52005 333 91118=
17501 42960 01704 10267 20145 30048 40066 52008 333 92427=
17505 42960 03109 10264 20224 39970 40077 51006=
17510 42960 00000 10256 20160 30052 40062 58001 333 92417=
17515 42960 01908 10258 20195 39919 40086 52008=
17521 42960 02912 10262 20199 39930 40057 52004=
17530 42960 02803 10230 20138 30020 40074 52007=
17535 42960 00000 10242 20172 30026 40061 52005=
17540 42960 02909 10276 20182 30062 40085 52008 333 92427=
17547 42960 03007 10252 20233 39834 40065 51004 333 92427=
17550 42960 02706 10257 20230 3//// 4//// 5//// 333 92437=
17572 42960 01808 10265 20194 30050 40073 56001 333 92417=



SMUS10 KWBC 152100
AAXX 15214
16008 42965 03405 10154 20097 38585 48545 52014=
16020 42968 31301 10220 20149 39896 40169 53027 83030 333 83361=
16021 42560 21104 10098 20087 38032 48534 53005 82400 333 82630=
16022 42789 42002 10102 20073 37924 48544 51002 84030 333 84356=
16052 42160 10510 10016 21010 36729 47169 53003 81080 333 81302 444 26240=
16059 32963 23404 10221 20172 39819 40177 52011 82030 333 82359=
16061 42884 11207 10228 20166 39362 42814 53001 81070 333 81357=
16066 32970 09902 10198 20156 39896 40175 52012=
16076 42970 00104 10224 20161 39895 40172 53014=
16080 32/60 /0000 10212 20181 30040 40169 52012=
16088 42960 03503 10220 20174 30043 40156 53001=
16098 42975 30702 10230 20194 30112 40161 53012 83030 333 83360=
16099 32960 00203 10250 20170 30146 40168 52018=
16105 32980 00105 10252 20157 30162 40165 52015=
16108 32960 00905 10239 20141 30153 40167 52016=
16110 42998 40701 10252 20128 30153 40157 51009 84080 333 84359 555 0////=
16120 42980 00205 10250 20151 30154 40158 53013 333 98584 555 0300/=
16134 41984 00433 10086 20059 37877 48541 53002 70241=
16140 42980 02204 10215 20170 30120 40160 53020=
16148 42970 02504 10200 20125 30146 40158 53009 333 55300=
16149 32982 22402 10226 20164 30143 40158 52010 80008 333 82872=
16153 42998 00305 10256 20141 39902 40154 52007 555 0////=
16158 42962 01202 10220 20196 30147 40155 52013=
16170 32970 10206 10244 20151 30105 40157 52012 81030 333 81362=
16179 42580 30000 10210 20158 39492 42796 51009 82460 333 82632=
16206 42980 20308 10238 20166 30132 40140 51012 81061 333 81360=
16214 46/// /0805 10223 20201 30133 40138 51010 333 55300 20170=
16224 46/64 /0203 10201 20189 39835 40143 50012 333 55300 20000=
16230 32565 52404 10216 20193 30127 40144 52011 81200 333 81835=
16239 32770 21003 10195 20176 39985 40141 52010 821// 333 82860=
16242 42982 00703 10206 20194 30134 40139 53010=
16245 41765 40505 10212 20204 30111 40136 52009 70262 84070 333 83356=
16252 42865 22905 10174 20174 39230 42789 54000 82030 333 82357=
16253 42670 60701 10226 20216 30120 40132 51010 83530 333 83640 83357=
16258 42460 53304 10170 20160 39170 42774 53009 83520 333 83615 83458=
16263 41/00 93306 10152 20134 38920 48498 53004 74542 333 89/00=
16270 42561 22905 10209 20196 30062 40125 53004 82700 333 82824=
16280 42898 23605 10230 20215 39910 40122 51010 82030 333 82358 555 0////=
16289 42660 73601 10218 20191 30055 40135 50008 87800 333 83840 87656=
16294 42597 50000 10220 20174 39947 40133 53007 85200 333 85630 555 0////=
16310 42998 43204 10240 20219 39900 40112 53001 80004 555 0////=
16312 41457 42904 10194 20194 39718 40122 52012 71011 82630 333 82713 83360=
16320 31475 22805 10216 20198 30104 40121 52006 71300 81300 333 81915=
16325 42998 03105 10224 20200 30104 40117 51004 333 98070 555 0////=
16332 42960 10302 10234 20211 30056 40118 52007 80001=
16344 42965 00000 10134 20097 38309 48486 54000 333 95500 95100=
16360 41597 20209 10250 20229 39983 40112 50011 71300 81930 333 81925 555 0////=
16362 41550 32504 10240 20177 30108 40123 53002 70199 83800 333 83825=
16405 32560 20902 10245 20176 30101 40125 52005 82200 333 82830=
16420 42897 43403 10240 20187 30051 40113 55001 84050 333 84358 555 0////=
16429 41565 30103 10250 20217 30113 40124 52005 71311 83900 333 82825 81930=
16459 42960 32507 10212 20212 30095 40130 50005 83030 333 83360=
16460 32960 02507 10206 20191 30108 40122 52003=
16520 32975 03002 10233 20197 30117 40149 52007=
16522 42998 03609 10248 20219 39913 40146 53006 555 0////=
16531 32665 22406 10229 20192 30134 40148 52008 82100 333 82830=
16546 42960 02002 10238 20230 30110 40138 53008=
16560 32780 12704 10241 20205 30142 40146 52008 81040 333 81350=
16564 42998 03505 10236 20189 30002 40138 51007 555 0////=
16597 32565 12907 10255 20192 30031 40135 50005 81100 333 60007 81825 91115 91212=
16606 46/// /0000 10229 20158 30087 40123 52010 333 91108=
16613 46/// /1205 10176 20169 39440 40150 52008 333 91106=
16622 42560 41205 10238 20149 30120 40121 52007 82231 333 82825 83068 91108=
16627 42560 10204 10248 20110 30103 40109 52005 81100 333 91107 555 40000 47612 44250 50000 50170=
16641 41560 32503 10268 20230 30105 40109 50006 71300 82980 333 81925 83357 91108 555 40000 47615 44255 50000 50242 70000 77P// 7/P//=
16643 42560 19903 10254 20228 30116 40120 51005 81140 333 91110 555 40000 47624 44260 50000 50236=
16648 42560 30000 10222 20165 30043 40125 52008 81160 333 91109=
16650 46/// /9902 10244 20185 30109 40109 52011 333 91114=
16675 46/// /2503 10203 20194 30113 40126 52006 333 91107=
16682 42960 00000 10240 20210 30105 40115 52004 333 91109=
16684 42960 12506 10258 20194 30091 40113 52009 80001 333 91114=
16710 46/// /9902 10184 20166 39396 40140 52006 333 91105=
16715 42960 00000 10228 20089 40117 52007 333 91111=
16716 46/// /0000 10251 20185 30066 40114 52007 333 91106=
16718 42960 03406 10262 20129 40115 52007 333 91110=
16726 42960 03506 10258 20208 40116 52006 333 91111=
16732 46/// /9902 10244 20203 30096 40106 52007 333 91112=
16734 46/// /9903 10251 2//// 30063 40121 52007 333 91113=
16738 46/// /2606 10239 20195 39922 40112 52001 333 91110=
16742 42360 13007 10234 20219 39931 40079 51005 81600 333 91114 555 40000 47488 44270 50000 50224=
16746 42960 00000 10242 20205 39936 40109 53007 333 91106 555 40000 47490 44250 50000 50218=
16749 42960 02412 10248 20199 30058 40071 51003 333 91118 555 40000 47582 44265 50000 50216=
16754 42960 03109 10260 20215 30062 40107 52003 333 91114 555 40000 47589 44290 50000 50230=
16757 47/// /2915 10252 20202 39974 40103 52004 7//4/ 333 91125 555 60000 65555 60027=
16760 47/// /9905 10234 20158 39723 40122 52004 7//4/ 333 91112 555 60000 65555 60007=
16765 46/// /2822 10249 20195 30064 40084 52006 333 91137=
17022 42670 21102 10208 20185 39940 40097 55000 82100 333 82834 91104 92428=
17030 42670 12702 10220 20163 30102 40106 56004 81100 333 81836 91106 92428=
17038 42670 31905 10232 20188 30060 40105 57007 83100 333 83835 91115 92428=
17050 42970 03602 10236 20130 30054 40112 51007 333 91105=
17056 42970 32602 10241 20200 30110 40114 52006 83030 333 83360 91109 92438=
17060 42960 00408 10254 20216 30070 40108 52005 333 91117=
17068 42560 40000 10172 20172 30027 40108 52005 84500 333 84620 91111=
17069 42970 03403 10228 20214 30057 40092 52004 333 91107=
17082 42970 00710 10202 20135 39499 40083 51003 333 91123=
17084 42970 00000 10197 20125 39234 40086 52011 333 91114=
17085 42970 03206 10222 20131 39631 40091 52010 333 91114=
17086 42970 01101 10199 20151 39410 40085 53003 333 91113=
17092 42960 00403 10216 20068 38816 48473 52008 333 91116=
17096 42870 10915 10198 20093 38234 48482 51005 81030 333 81358 91127=
17098 42960 00413 10129 20099 38216 48509 52002 333 91120=
17115 42960 00604 10242 20207 30056 40104 52008 333 91119=
17116 42970 02105 10244 20182 39978 40092 52009 333 91108=
17120 42970 02602 10226 20148 39483 40077 52004 333 91106=
17124 42960 02408 10211 20117 39223 40080 52010 333 91114=
17128 42970 00701 10195 20027 39049 40079 52010 333 91109=
17129 42970 01203 10196 20078 39198 40080 52009 333 91110=
17130 42970 00503 10213 20019 39104 40067 52008 333 91108=
17150 42960 03306 10236 20181 39985 40101 52006 333 91115=
17160 42970 03205 10236 20071 38973 48480 52005 333 91110=
17170 42660 10607 10199 20093 38314 48473 53002 81100 333 81840 91110=
17184 42970 03403 10270 20154 39971 40074 52011 333 91115=
17186 42970 02401 10274 20167 39991 40071 52007 333 91103=
17193 42970 00802 10201 20055 38738 48497 52006=
17195 42970 00000 10152 20055 38938 48484 52009 333 91105=
17200 42960 01603 10207 20017 39115 40030 52006 333 91107=
17202 42960 02206 10186 21003 39060 40026 53002 333 91110=
17203 42970 02401 10237 20059 38822 48505 52005 333 91104=
17218 42960 00000 10236 20195 30079 40085 52006 333 91110=
17219 42965 01603 10235 20202 39949 40085 52010 333 91114=
17220 42970 02606 10272 20188 30046 40078 52007 333 91109 92428=
17237 42970 01401 10259 20171 39610 40078 53006 333 91104=
17240 42970 00000 10180 20044 38991 40064 52006 333 91104=
17244 42970 03005 10205 21012 38960 48488 52002 333 91108=
17248 42970 01102 10209 20015 38943 48484 52006 333 91105=
17260 42960 02806 10262 20150 39269 40017 52001 333 91112=
17280 42960 03007 10280 20034 39276 49992 52006 333 91114=
17282 42970 00601 10253 20090 39346 40000 52005 333 91107=
17292 42970 03003 10252 20131 39360 40057 52007 333 91106=
17295 42960 00803 10236 20190 30066 40073 51005 333 91111=
17298 42970 03003 10257 20182 30057 40075 52007 333 91112 92418=
17300 42960 03404 10263 20233 30002 40068 52005 333 91107=
17320 42970 00000 10262 20215 30052 40056 52006 333 92428=
17340 42670 41501 10289 20235 30060 40068 52010 84100 333 84835 92428=
17350 42960 00000 10268 20231 39994 40067 52011=
17352 42660 31702 10262 20239 30045 40068 52010 83100 333 83835=
17370 42665 11001 10285 20222 30067 40071 52005 81100 333 81840 91106 92417=
17601 42984 02711 10260 20236 30035 40065 53003 333 55300 2////=